createdAt,value
2017-06-12T00:02:03.281Z,10.20
2017-06-12T00:04:31.469Z,8.17
2017-06-12T00:06:59.690Z,10.77
2017-06-12T00:09:27.862Z,8.47
2017-06-12T00:11:56.043Z,11.73
2017-06-12T00:14:24.237Z,9.53
2017-06-12T00:16:52.409Z,7.80
2017-06-12T00:19:20.573Z,10.93
2017-06-12T00:21:48.760Z,8.47
2017-06-12T00:24:16.970Z,10.40
2017-06-12T00:26:45.274Z,7.30
2017-06-12T00:29:14.263Z,8.00
2017-06-12T00:31:42.442Z,9.23
2017-06-12T00:34:10.664Z,7.47
2017-06-12T00:36:38.935Z,13.47
2017-06-12T00:39:07.258Z,7.40
2017-06-12T00:41:35.441Z,10.93
2017-06-12T00:44:04.361Z,11.33
2017-06-12T00:46:32.519Z,8.23
2017-06-12T00:49:01.026Z,10.87
2017-06-12T00:51:29.187Z,11.33
2017-06-12T00:53:57.827Z,9.30
2017-06-12T00:56:26.073Z,9.00
2017-06-12T00:58:54.258Z,8.23
2017-06-12T01:01:22.594Z,7.87
2017-06-12T01:03:50.806Z,11.30
2017-06-12T01:06:18.970Z,9.17
2017-06-12T01:08:47.265Z,12.50
2017-06-12T01:14:16.411Z,7.90
2017-06-12T01:16:44.587Z,8.80
2017-06-12T01:19:12.846Z,12.03
2017-06-12T01:22:01.690Z,13.50
2017-06-12T01:24:29.858Z,10.00
2017-06-12T01:26:58.033Z,10.60
2017-06-12T01:29:26.637Z,11.03
2017-06-12T01:44:45.043Z,12.30
2017-06-12T01:47:13.270Z,9.30
2017-06-12T01:49:41.640Z,13.27
2017-06-12T01:52:09.845Z,9.10
2017-06-12T01:54:38.012Z,9.23
2017-06-12T01:57:06.188Z,15.10
2017-06-12T01:59:34.411Z,11.27
2017-06-12T02:02:02.592Z,10.60
2017-06-12T02:04:30.783Z,11.87
2017-06-12T02:06:59.003Z,12.00
2017-06-12T02:09:27.207Z,10.90
2017-06-12T02:11:55.375Z,11.90
2017-06-12T02:14:23.686Z,10.97
2017-06-12T02:16:51.906Z,12.37
2017-06-12T02:19:20.096Z,16.20
2017-06-12T02:21:48.324Z,15.73
2017-06-12T02:24:16.526Z,21.67
2017-06-12T02:26:44.700Z,10.70
2017-06-12T02:29:12.932Z,14.23
2017-06-12T02:31:41.118Z,9.80
2017-06-12T02:34:09.343Z,9.23
2017-06-12T02:36:37.550Z,22.10
2017-06-12T02:39:05.727Z,12.23
2017-06-12T02:41:33.929Z,11.30
2017-06-12T02:44:02.470Z,12.00
2017-06-12T02:46:30.667Z,13.10
2017-06-12T02:48:58.858Z,12.43
2017-06-12T02:51:27.099Z,10.07
2017-06-12T02:53:55.288Z,6.73
2017-06-12T02:56:23.681Z,8.17
2017-06-12T02:58:52.246Z,12.60
2017-06-12T03:01:20.664Z,11.10
2017-06-12T03:03:48.903Z,9.33
2017-06-12T03:06:17.086Z,18.73
2017-06-12T03:08:45.331Z,20.70
2017-06-12T03:11:13.682Z,18.20
2017-06-12T03:13:41.880Z,16.00
2017-06-12T03:16:10.095Z,18.30
2017-06-12T03:18:38.480Z,16.73
2017-06-12T03:21:06.648Z,16.57
2017-06-12T03:23:34.824Z,18.87
2017-06-12T03:26:03.098Z,17.00
2017-06-12T03:28:31.315Z,22.30
2017-06-12T03:30:59.527Z,21.80
2017-06-12T03:33:27.723Z,18.10
2017-06-12T03:35:55.949Z,21.03
2017-06-12T03:38:24.166Z,27.23
2017-06-12T03:40:52.375Z,18.60
2017-06-12T03:43:20.647Z,20.47
2017-06-12T03:45:49.150Z,19.27
2017-06-12T03:48:17.322Z,17.97
2017-06-12T03:50:45.513Z,18.37
2017-06-12T03:53:13.738Z,17.40
2017-06-12T03:55:42.694Z,17.77
2017-06-12T03:58:10.903Z,18.47
2017-06-12T04:00:40.084Z,24.17
2017-06-12T04:03:08.932Z,23.20
2017-06-12T04:05:37.160Z,19.97
2017-06-12T04:08:06.158Z,19.27
2017-06-12T04:10:34.515Z,16.93
2017-06-12T04:13:02.795Z,20.00
2017-06-12T04:15:31.412Z,22.47
2017-06-12T04:17:59.642Z,22.13
2017-06-12T04:20:28.022Z,16.93
2017-06-12T04:22:56.267Z,15.43
2017-06-12T04:25:24.488Z,19.47
2017-06-12T04:27:52.684Z,17.80
2017-06-12T04:30:20.939Z,21.77
2017-06-12T04:32:49.899Z,17.87
2017-06-12T04:35:18.102Z,17.13
2017-06-12T04:37:47.079Z,19.40
2017-06-12T04:40:15.300Z,15.00
2017-06-12T04:42:43.483Z,21.30
2017-06-12T04:45:11.819Z,18.00
2017-06-12T04:47:40.034Z,17.97
2017-06-12T04:50:08.208Z,16.10
2017-06-12T04:52:36.567Z,13.17
2017-06-12T04:55:04.770Z,14.00
2017-06-12T04:57:32.962Z,13.97
2017-06-12T05:00:01.209Z,11.07
2017-06-12T05:02:29.554Z,11.93
2017-06-12T05:04:57.742Z,12.57
2017-06-12T05:07:25.929Z,18.13
2017-06-12T05:09:54.180Z,12.97
2017-06-12T05:12:22.359Z,10.57
2017-06-12T05:14:50.629Z,13.20
2017-06-12T05:17:18.834Z,16.30
2017-06-12T05:19:47.033Z,13.47
2017-06-12T05:22:15.248Z,13.93
2017-06-12T05:24:43.547Z,11.23
2017-06-12T05:27:11.827Z,10.43
2017-06-12T05:29:40.099Z,16.80
2017-06-12T05:32:08.308Z,12.47
2017-06-12T05:34:36.515Z,10.87
2017-06-12T05:37:05.446Z,9.23
2017-06-12T05:39:33.667Z,12.10
2017-06-12T05:42:01.978Z,9.60
2017-06-12T05:44:30.238Z,12.80
2017-06-12T05:46:58.497Z,8.93
2017-06-12T05:49:27.452Z,11.23
2017-06-12T05:51:56.978Z,13.40
2017-06-12T05:54:25.202Z,7.20
2017-06-12T05:56:53.385Z,8.63
2017-06-12T05:59:21.605Z,12.60
2017-06-12T06:01:50.564Z,8.93
2017-06-12T06:04:18.747Z,8.60
2017-06-12T06:06:46.948Z,4.53
2017-06-12T06:09:15.141Z,6.70
2017-06-12T06:11:43.312Z,9.20
2017-06-12T06:14:11.479Z,5.37
2017-06-12T06:16:39.677Z,18.40
2017-06-12T06:19:07.856Z,7.43
2017-06-12T06:21:36.190Z,15.17
2017-06-12T06:24:04.405Z,11.20
2017-06-12T06:26:32.638Z,7.43
2017-06-12T06:29:01.607Z,5.30
2017-06-12T06:31:29.802Z,9.87
2017-06-12T06:33:57.991Z,14.20
2017-06-12T06:36:26.180Z,8.10
2017-06-12T06:38:54.356Z,9.67
2017-06-12T06:41:22.528Z,27.63
2017-06-12T06:43:50.716Z,7.87
2017-06-12T06:46:18.888Z,9.03
2017-06-12T06:48:47.077Z,7.00
2017-06-12T06:51:15.250Z,6.70
2017-06-12T06:53:43.428Z,6.23
2017-06-12T06:56:11.612Z,5.50
2017-06-12T06:58:39.822Z,5.93
2017-06-12T07:01:08.185Z,7.97
2017-06-12T07:03:36.359Z,7.70
2017-06-12T07:06:04.613Z,7.80
2017-06-12T07:08:32.786Z,7.00
2017-06-12T07:11:00.954Z,7.47
2017-06-12T07:13:29.168Z,8.03
2017-06-12T07:15:57.339Z,10.13
2017-06-12T07:18:25.514Z,7.53
2017-06-12T07:20:53.695Z,5.10
2017-06-12T07:23:21.876Z,5.27
2017-06-12T07:25:50.276Z,3.97
2017-06-12T07:28:18.440Z,5.27
2017-06-12T07:30:46.663Z,6.30
2017-06-12T07:33:14.833Z,5.77
2017-06-12T07:35:42.996Z,6.23
2017-06-12T07:38:11.562Z,4.80
2017-06-12T07:40:39.781Z,4.37
2017-06-12T07:43:07.960Z,6.73
2017-06-12T07:45:36.533Z,6.00
2017-06-12T07:48:04.790Z,10.10
2017-06-12T07:50:33.748Z,10.97
2017-06-12T07:53:01.947Z,8.00
2017-06-12T07:55:30.122Z,8.00
2017-06-12T07:57:59.057Z,7.07
2017-06-12T08:00:27.262Z,6.07
2017-06-12T08:02:55.416Z,6.03
2017-06-12T08:05:23.596Z,4.27
2017-06-12T08:07:51.908Z,3.40
2017-06-12T08:10:20.084Z,3.13
2017-06-12T08:12:48.257Z,5.77
2017-06-12T08:15:16.458Z,7.23
2017-06-12T08:17:44.714Z,3.57
2017-06-12T08:20:12.911Z,3.10
2017-06-12T08:22:41.082Z,3.40
2017-06-12T08:25:09.354Z,6.20
2017-06-12T08:27:37.558Z,2.87
2017-06-12T08:30:05.715Z,3.70
2017-06-12T08:32:33.969Z,2.77
2017-06-12T08:35:02.127Z,3.30
2017-06-12T08:37:30.325Z,2.33
2017-06-12T08:39:58.565Z,3.67
2017-06-12T08:42:27.519Z,3.13
2017-06-12T08:44:55.717Z,4.70
2017-06-12T08:47:23.904Z,8.30
2017-06-12T08:49:52.862Z,3.47
2017-06-12T08:52:21.103Z,7.30
2017-06-12T08:54:49.257Z,3.07
2017-06-12T08:57:17.434Z,3.63
2017-06-12T08:59:45.654Z,5.80
2017-06-12T09:02:13.842Z,3.13
2017-06-12T09:04:42.027Z,2.50
2017-06-12T09:07:10.259Z,4.90
2017-06-12T09:09:38.455Z,4.60
2017-06-12T09:12:06.643Z,2.83
2017-06-12T09:14:34.872Z,4.43
2017-06-12T09:17:03.046Z,2.40
2017-06-12T09:19:31.240Z,4.73
2017-06-12T09:21:59.443Z,2.67
2017-06-12T09:24:27.725Z,3.67
2017-06-12T09:26:55.945Z,3.50
2017-06-12T09:29:24.131Z,4.20
2017-06-12T09:31:52.316Z,3.57
2017-06-12T09:34:20.644Z,12.80
2017-06-12T09:36:48.820Z,3.83
2017-06-12T09:39:17.016Z,2.67
2017-06-12T09:41:45.218Z,3.17
2017-06-12T09:44:13.383Z,1.50
2017-06-12T09:46:42.359Z,3.40
2017-06-12T09:49:10.547Z,2.33
2017-06-12T09:51:38.720Z,2.23
2017-06-12T09:54:06.957Z,2.07
2017-06-12T09:56:35.140Z,5.03
2017-06-12T09:59:03.307Z,7.33
2017-06-12T10:01:31.561Z,2.73
2017-06-12T10:04:00.068Z,3.80
2017-06-12T10:06:28.226Z,12.90
2017-06-12T10:08:56.402Z,4.07
2017-06-12T10:11:24.562Z,4.40
2017-06-12T10:13:52.723Z,12.27
2017-06-12T10:16:20.932Z,2.40
2017-06-12T10:18:49.112Z,3.50
2017-06-12T10:21:17.346Z,4.03
2017-06-12T10:23:45.504Z,2.60
2017-06-12T10:26:13.699Z,4.73
2017-06-12T10:28:41.929Z,2.90
2017-06-12T10:31:10.110Z,3.50
2017-06-12T10:33:38.475Z,4.90
2017-06-12T10:36:06.670Z,4.70
2017-06-12T10:38:34.871Z,2.73
2017-06-12T10:41:03.045Z,3.40
2017-06-12T10:43:31.422Z,6.03
2017-06-12T10:45:59.635Z,4.57
2017-06-12T10:48:27.903Z,3.97
2017-06-12T10:50:56.199Z,3.23
2017-06-12T10:53:24.442Z,3.43
2017-06-12T10:55:52.648Z,2.77
2017-06-12T10:58:20.841Z,1.63
2017-06-12T11:00:49.099Z,3.07
2017-06-12T11:03:17.366Z,4.23
2017-06-12T11:05:45.592Z,4.87
2017-06-12T11:08:13.870Z,6.83
2017-06-12T11:10:42.036Z,18.13
2017-06-12T11:13:10.268Z,4.20
2017-06-12T11:15:38.481Z,3.97
2017-06-12T11:18:06.715Z,4.07
2017-06-12T11:20:34.911Z,2.83
2017-06-12T11:23:03.102Z,6.70
2017-06-12T11:25:36.863Z,5.73
2017-06-12T11:28:05.082Z,3.53
2017-06-12T11:30:33.361Z,1.50
2017-06-12T11:33:01.578Z,4.97
2017-06-12T11:35:29.783Z,3.13
2017-06-12T11:37:58.038Z,3.47
2017-06-12T11:40:26.417Z,1.80
2017-06-12T11:42:54.619Z,8.30
2017-06-12T11:45:22.803Z,2.20
2017-06-12T11:47:50.990Z,2.90
2017-06-12T11:50:19.313Z,1.60
2017-06-12T11:52:47.491Z,3.37
2017-06-12T11:55:16.429Z,8.83
2017-06-12T11:57:44.688Z,5.03
2017-06-12T12:00:12.902Z,2.20
2017-06-12T12:02:41.101Z,8.23
2017-06-12T12:05:10.135Z,4.40
2017-06-12T12:07:38.313Z,2.20
2017-06-12T12:10:06.495Z,1.67
2017-06-12T12:12:35.035Z,5.03
2017-06-12T12:15:04.008Z,3.57
2017-06-12T12:17:32.189Z,2.93
2017-06-12T12:20:01.203Z,1.40
2017-06-12T12:22:29.403Z,4.30
2017-06-12T12:24:57.596Z,1.93
2017-06-12T12:27:25.811Z,4.07
2017-06-12T12:29:54.751Z,5.60
2017-06-12T12:32:22.955Z,1.57
2017-06-12T12:34:51.149Z,4.80
2017-06-12T12:37:19.401Z,2.87
2017-06-12T12:39:47.580Z,3.13
2017-06-12T12:42:16.900Z,3.80
2017-06-12T12:44:45.112Z,5.13
2017-06-12T12:47:13.891Z,2.33
2017-06-12T12:49:42.063Z,1.80
2017-06-12T12:52:10.318Z,3.23
2017-06-12T12:54:40.068Z,3.60
2017-06-12T12:57:08.500Z,2.57
2017-06-12T12:59:36.711Z,6.83
2017-06-12T13:02:04.903Z,3.90
2017-06-12T13:04:33.141Z,3.20
2017-06-12T13:07:01.350Z,1.87
2017-06-12T13:09:29.559Z,3.47
2017-06-12T13:11:57.785Z,3.77
2017-06-12T13:14:27.241Z,1.40
2017-06-12T13:16:55.443Z,5.23
2017-06-12T13:19:23.640Z,4.87
2017-06-12T13:21:51.869Z,2.70
2017-06-12T13:24:20.103Z,1.03
2017-06-12T13:26:48.292Z,3.47
2017-06-12T13:29:16.488Z,3.73
2017-06-12T13:31:44.733Z,2.30
2017-06-12T13:34:12.999Z,2.00
2017-06-12T13:36:41.268Z,2.87
2017-06-12T13:39:09.439Z,2.37
2017-06-12T13:41:37.635Z,6.50
2017-06-12T13:44:06.667Z,1.10
2017-06-12T13:46:35.017Z,7.80
2017-06-12T13:49:03.991Z,2.00
2017-06-12T13:51:32.179Z,3.43
2017-06-12T13:54:00.417Z,1.50
2017-06-12T13:56:28.575Z,3.17
2017-06-12T13:58:56.756Z,1.93
2017-06-12T14:01:24.996Z,3.40
2017-06-12T14:03:53.172Z,2.90
2017-06-12T14:06:21.341Z,2.87
2017-06-12T14:08:49.590Z,3.90
2017-06-12T14:11:18.577Z,3.60
2017-06-12T14:13:46.758Z,1.73
2017-06-12T14:16:14.973Z,3.00
2017-06-12T14:18:43.219Z,5.03
2017-06-12T14:21:11.413Z,3.07
2017-06-12T14:23:39.649Z,6.73
2017-06-12T14:26:08.612Z,7.93
2017-06-12T14:28:36.788Z,2.27
2017-06-12T14:31:04.997Z,1.90
2017-06-12T14:33:33.188Z,4.03
2017-06-12T14:36:01.484Z,2.63
2017-06-12T14:38:29.730Z,5.77
2017-06-12T14:40:57.901Z,6.60
2017-06-12T14:43:26.071Z,4.40
2017-06-12T14:45:54.277Z,3.07
2017-06-12T14:48:22.485Z,2.53
2017-06-12T14:50:50.680Z,8.30
2017-06-12T14:53:18.854Z,3.27
2017-06-12T14:55:47.056Z,3.50
2017-06-12T14:58:15.355Z,2.10
2017-06-12T15:00:43.557Z,2.00
2017-06-12T15:03:11.754Z,3.30
2017-06-12T15:05:40.000Z,9.03
2017-06-12T15:08:08.319Z,4.20
2017-06-12T15:10:36.503Z,3.40
2017-06-12T15:13:04.673Z,3.80
2017-06-12T15:15:32.959Z,2.17
2017-06-12T15:18:01.143Z,2.93
2017-06-12T15:20:29.336Z,1.87
2017-06-12T15:22:57.560Z,3.67
2017-06-12T15:25:25.739Z,3.00
2017-06-12T15:27:54.015Z,5.73
2017-06-12T15:30:22.268Z,2.13
2017-06-12T15:32:50.544Z,3.60
2017-06-12T15:35:18.790Z,3.73
2017-06-12T15:37:47.127Z,7.03
2017-06-12T15:40:15.344Z,3.83
2017-06-12T15:42:44.344Z,3.17
2017-06-12T15:45:12.532Z,7.30
2017-06-12T15:47:41.142Z,5.93
2017-06-12T15:50:09.406Z,7.90
2017-06-12T15:52:37.616Z,5.87
2017-06-12T15:55:05.844Z,4.10
2017-06-12T15:57:34.183Z,5.40
2017-06-12T16:00:02.354Z,3.17
2017-06-12T16:02:30.606Z,9.13
2017-06-12T16:04:58.803Z,10.20
2017-06-12T16:07:27.023Z,3.70
2017-06-12T16:09:55.312Z,4.10
2017-06-12T16:12:23.490Z,4.40
2017-06-12T16:14:51.794Z,4.77
2017-06-12T16:17:20.025Z,5.57
2017-06-12T16:19:48.209Z,6.77
2017-06-12T16:22:16.398Z,3.87
2017-06-12T16:24:44.597Z,5.33
2017-06-12T16:27:12.908Z,7.03
2017-06-12T16:29:41.117Z,3.57
2017-06-12T16:32:09.421Z,4.20
2017-06-12T16:34:38.447Z,5.80
2017-06-12T16:37:06.611Z,3.40
2017-06-12T16:39:34.825Z,8.80
2017-06-12T16:42:03.039Z,6.63
2017-06-12T16:44:39.243Z,5.43
2017-06-12T16:47:10.195Z,8.00
2017-06-12T16:49:38.368Z,5.83
2017-06-12T16:52:06.746Z,5.07
2017-06-12T16:54:35.002Z,5.10
2017-06-12T16:57:03.280Z,11.87
2017-06-12T16:59:31.454Z,10.53
2017-06-12T17:01:59.687Z,6.57
2017-06-12T17:04:28.663Z,6.00
2017-06-12T17:06:56.888Z,6.23
2017-06-12T17:09:25.087Z,8.40
2017-06-12T17:11:53.228Z,8.73
2017-06-12T17:14:21.400Z,7.80
2017-06-12T17:16:49.636Z,6.57
2017-06-12T17:19:17.823Z,6.03
2017-06-12T17:21:46.022Z,4.00
2017-06-12T17:24:15.889Z,5.67
2017-06-12T17:26:47.734Z,7.50
2017-06-12T17:29:16.585Z,12.63
2017-06-12T17:31:44.850Z,10.50
2017-06-12T17:34:13.137Z,11.60
2017-06-12T17:36:41.600Z,11.23
2017-06-12T17:39:09.777Z,9.53
2017-06-12T17:41:37.961Z,15.63
2017-06-12T17:44:06.236Z,6.40
2017-06-12T17:46:34.411Z,8.90
2017-06-12T17:49:02.666Z,11.43
2017-06-12T17:51:30.858Z,12.17
2017-06-12T17:53:59.045Z,10.93
2017-06-12T17:56:27.245Z,12.80
2017-06-12T17:58:55.479Z,6.77
2017-06-12T18:01:23.717Z,16.40
2017-06-12T18:03:52.827Z,7.57
2017-06-12T18:06:21.224Z,9.70
2017-06-12T18:08:49.565Z,8.13
2017-06-12T18:11:18.537Z,9.50
2017-06-12T18:13:46.722Z,6.23
2017-06-12T18:16:15.003Z,11.80
2017-06-12T18:18:43.316Z,7.63
2017-06-12T18:21:11.530Z,12.80
2017-06-12T18:23:39.763Z,13.43
2017-06-12T18:26:08.094Z,13.63
2017-06-12T18:28:36.372Z,10.37
2017-06-12T18:31:04.608Z,11.50
2017-06-12T18:33:33.010Z,11.63
2017-06-12T18:36:01.192Z,11.00
2017-06-12T18:38:29.392Z,11.63
2017-06-12T18:40:57.609Z,14.67
2017-06-12T18:43:25.978Z,14.53
2017-06-12T18:45:54.233Z,9.60
2017-06-12T18:48:22.427Z,10.10
2017-06-12T18:50:50.687Z,8.80
2017-06-12T18:53:18.900Z,6.40
2017-06-12T18:55:47.127Z,17.20
2017-06-12T18:58:15.369Z,11.40
2017-06-12T19:00:44.357Z,9.30
2017-06-12T19:03:12.564Z,8.83
2017-06-12T19:05:40.807Z,18.33
2017-06-12T19:08:09.082Z,13.07
2017-06-12T19:10:37.264Z,13.87
2017-06-12T19:13:05.552Z,9.60
2017-06-12T19:15:33.793Z,14.40
2017-06-12T19:18:02.919Z,5.67
2017-06-12T19:20:31.967Z,8.20
2017-06-12T19:23:00.167Z,12.03
2017-06-12T19:25:28.383Z,6.90
2017-06-12T19:27:56.588Z,13.63
2017-06-12T19:30:24.774Z,7.37
2017-06-12T19:32:53.300Z,12.70
2017-06-12T19:35:21.517Z,9.80
2017-06-12T19:37:49.699Z,7.50
2017-06-12T19:40:17.948Z,13.60
2017-06-12T19:42:46.328Z,10.43
2017-06-12T19:45:14.546Z,10.60
2017-06-12T19:47:42.771Z,9.63
2017-06-12T19:50:11.000Z,9.17
2017-06-12T19:52:39.343Z,11.67
2017-06-12T19:55:07.554Z,15.43
2017-06-12T19:57:35.791Z,15.93
2017-06-12T20:00:04.053Z,12.70
2017-06-12T20:02:32.304Z,9.90
2017-06-12T20:05:00.501Z,13.10
2017-06-12T20:07:28.669Z,9.83
2017-06-12T20:09:56.975Z,23.70
2017-06-12T20:12:25.211Z,25.40
2017-06-12T20:14:53.452Z,14.90
2017-06-12T20:17:21.659Z,10.53
2017-06-12T20:19:50.355Z,12.07
2017-06-12T20:22:19.399Z,14.30
2017-06-12T20:24:47.805Z,13.77
2017-06-12T20:27:16.041Z,16.30
2017-06-12T20:29:44.691Z,11.10
2017-06-12T20:32:13.688Z,9.40
2017-06-12T20:34:41.861Z,11.17
2017-06-12T20:37:10.087Z,11.97
2017-06-12T20:39:38.256Z,11.90
2017-06-12T20:42:06.492Z,14.53
2017-06-12T20:44:34.717Z,12.00
2017-06-12T20:47:03.334Z,12.47
2017-06-12T20:49:31.563Z,11.87
2017-06-12T20:51:59.765Z,17.30
2017-06-12T20:54:27.992Z,14.20
2017-06-12T20:56:56.229Z,8.93
2017-06-12T20:59:24.427Z,9.87
2017-06-12T21:01:52.678Z,11.70
2017-06-12T21:04:20.919Z,14.00
2017-06-12T21:06:49.400Z,11.80
2017-06-12T21:09:17.595Z,14.43
2017-06-12T21:11:45.813Z,11.67
2017-06-12T21:14:14.794Z,16.87
2017-06-12T21:16:43.072Z,7.47
2017-06-12T21:19:11.379Z,12.17
2017-06-12T21:21:39.586Z,10.93
2017-06-12T21:24:07.786Z,12.13
2017-06-12T21:26:35.999Z,19.27
2017-06-12T21:29:04.233Z,12.80
2017-06-12T21:31:32.396Z,12.23
2017-06-12T21:34:00.630Z,11.77
2017-06-12T21:36:28.848Z,18.70
2017-06-12T21:38:57.036Z,10.60
2017-06-12T21:41:25.302Z,10.80
2017-06-12T21:43:53.732Z,12.87
2017-06-12T21:46:22.211Z,9.43
2017-06-12T21:48:50.433Z,10.00
2017-06-12T21:51:18.645Z,13.93
2017-06-12T21:53:46.843Z,11.53
2017-06-12T21:56:15.047Z,16.90
2017-06-12T21:58:43.216Z,11.00
2017-06-12T22:01:11.391Z,17.60
2017-06-12T22:03:39.614Z,17.03
2017-06-12T22:06:07.835Z,11.90
2017-06-12T22:08:36.013Z,13.20
2017-06-12T22:11:04.204Z,12.73
2017-06-12T22:13:32.390Z,12.60
2017-06-12T22:16:00.765Z,9.23
2017-06-12T22:18:28.980Z,10.50
2017-06-12T22:20:57.168Z,14.07
2017-06-12T22:23:25.360Z,13.67
2017-06-12T22:25:53.546Z,10.60
2017-06-12T22:28:21.719Z,11.33
2017-06-12T22:30:50.008Z,11.47
2017-06-12T22:33:18.220Z,8.27
2017-06-12T22:35:46.427Z,10.47
2017-06-12T22:38:14.647Z,9.83
2017-06-12T22:40:42.930Z,8.77
2017-06-12T22:43:11.117Z,10.40
2017-06-12T22:45:39.320Z,14.83
2017-06-12T22:48:07.534Z,9.40
2017-06-12T22:50:35.715Z,7.43
2017-06-12T22:53:03.876Z,5.63
2017-06-12T22:55:32.104Z,8.57
2017-06-12T22:58:00.273Z,11.10
2017-06-12T23:00:28.454Z,10.40
2017-06-12T23:02:56.668Z,12.37
2017-06-12T23:05:24.844Z,7.30
2017-06-12T23:07:53.089Z,9.67
2017-06-12T23:10:21.251Z,9.70
2017-06-12T23:12:49.423Z,6.00
2017-06-12T23:15:17.726Z,8.63
2017-06-12T23:17:45.919Z,18.53
2017-06-12T23:20:14.075Z,5.20
2017-06-12T23:22:47.947Z,10.03
2017-06-12T23:25:16.166Z,9.43
2017-06-12T23:27:50.027Z,18.53
2017-06-12T23:30:18.200Z,8.40
2017-06-12T23:32:48.193Z,11.40
2017-06-12T23:35:17.319Z,9.33
2017-06-12T23:37:45.534Z,8.47
2017-06-12T23:40:13.911Z,6.50
2017-06-12T23:42:42.261Z,8.20
2017-06-12T23:45:10.432Z,14.60
2017-06-12T23:47:38.660Z,25.63
2017-06-12T23:50:07.016Z,14.07
2017-06-12T23:52:35.211Z,10.53
2017-06-12T23:55:03.388Z,14.23
2017-06-12T23:57:31.604Z,18.90
2017-06-12T23:59:59.995Z,15.73
